sensor_id;sensor_type;location;lat;lon;timestamp;temperature;humidity
70269;DHT22;58514;48.398;-4.274;2022-10-31T00:00:05;14.40;99.90
70269;DHT22;58514;48.398;-4.274;2022-10-31T00:02:31;14.40;99.90
70269;DHT22;58514;48.398;-4.274;2022-10-31T00:04:57;14.40;99.90
70269;DHT22;58514;48.398;-4.274;2022-10-31T00:07:22;14.40;99.90
70269;DHT22;58514;48.398;-4.274;2022-10-31T00:09:48;14.40;99.90
70269;DHT22;58514;48.398;-4.274;2022-10-31T00:12:13;14.40;99.90
70269;DHT22;58514;48.398;-4.274;2022-10-31T00:14:39;14.40;99.90
70269;DHT22;58514;48.398;-4.274;2022-10-31T00:17:04;14.50;99.90
70269;DHT22;58514;48.398;-4.274;2022-10-31T00:19:30;14.40;99.90
70269;DHT22;58514;48.398;-4.274;2022-10-31T00:21:56;14.50;99.90
70269;DHT22;58514;48.398;-4.274;2022-10-31T00:24:21;14.40;99.90
70269;DHT22;58514;48.398;-4.274;2022-10-31T00:26:47;14.50;99.90
70269;DHT22;58514;48.398;-4.274;2022-10-31T00:29:12;14.40;99.90
70269;DHT22;58514;48.398;-4.274;2022-10-31T00:31:38;14.50;99.90
70269;DHT22;58514;48.398;-4.274;2022-10-31T00:34:03;14.50;99.90
70269;DHT22;58514;48.398;-4.274;2022-10-31T00:36:29;14.50;99.90
70269;DHT22;58514;48.398;-4.274;2022-10-31T00:38:55;14.50;99.90
70269;DHT22;58514;48.398;-4.274;2022-10-31T00:41:20;14.50;99.90
70269;DHT22;58514;48.398;-4.274;2022-10-31T00:43:46;14.60;99.90
70269;DHT22;58514;48.398;-4.274;2022-10-31T00:46:12;14.60;99.90
70269;DHT22;58514;48.398;-4.274;2022-10-31T00:48:38;14.60;99.90
70269;DHT22;58514;48.398;-4.274;2022-10-31T00:51:03;14.50;99.90
70269;DHT22;58514;48.398;-4.274;2022-10-31T00:53:29;14.50;99.90
70269;DHT22;58514;48.398;-4.274;2022-10-31T00:55:54;14.60;99.90
70269;DHT22;58514;48.398;-4.274;2022-10-31T00:58:20;14.60;99.90
70269;DHT22;58514;48.398;-4.274;2022-10-31T01:00:48;14.50;99.90
70269;DHT22;58514;48.398;-4.274;2022-10-31T01:03:21;14.50;99.90
70269;DHT22;58514;48.398;-4.274;2022-10-31T01:05:54;14.50;99.90
70269;DHT22;58514;48.398;-4.274;2022-10-31T01:08:20;14.50;99.90
70269;DHT22;58514;48.398;-4.274;2022-10-31T01:10:45;14.60;99.90
70269;DHT22;58514;48.398;-4.274;2022-10-31T01:13:11;14.60;99.90
70269;DHT22;58514;48.398;-4.274;2022-10-31T01:15:36;14.50;99.90
70269;DHT22;58514;48.398;-4.274;2022-10-31T01:18:02;14.50;99.90
70269;DHT22;58514;48.398;-4.274;2022-10-31T01:20:27;14.50;99.90
70269;DHT22;58514;48.398;-4.274;2022-10-31T01:22:53;14.50;99.90
70269;DHT22;58514;48.398;-4.274;2022-10-31T01:25:18;14.50;99.90
70269;DHT22;58514;48.398;-4.274;2022-10-31T01:27:44;14.50;99.90
70269;DHT22;58514;48.398;-4.274;2022-10-31T01:30:10;14.50;99.90
70269;DHT22;58514;48.398;-4.274;2022-10-31T01:32:35;14.50;99.90
70269;DHT22;58514;48.398;-4.274;2022-10-31T01:35:01;14.50;99.90
70269;DHT22;58514;48.398;-4.274;2022-10-31T01:37:26;14.50;99.90
70269;DHT22;58514;48.398;-4.274;2022-10-31T01:39:52;14.50;99.90
70269;DHT22;58514;48.398;-4.274;2022-10-31T01:42:19;14.50;99.90
70269;DHT22;58514;48.398;-4.274;2022-10-31T01:44:58;14.50;99.90
70269;DHT22;58514;48.398;-4.274;2022-10-31T01:47:32;14.40;99.90
70269;DHT22;58514;48.398;-4.274;2022-10-31T01:49:59;14.40;99.90
70269;DHT22;58514;48.398;-4.274;2022-10-31T01:52:33;14.40;99.90
70269;DHT22;58514;48.398;-4.274;2022-10-31T01:57:32;14.40;99.90
70269;DHT22;58514;48.398;-4.274;2022-10-31T01:59:59;14.40;99.90
70269;DHT22;58514;48.398;-4.274;2022-10-31T02:02:26;14.40;99.90
70269;DHT22;58514;48.398;-4.274;2022-10-31T02:04:52;14.30;99.90
70269;DHT22;58514;48.398;-4.274;2022-10-31T02:07:20;14.30;99.90
70269;DHT22;58514;48.398;-4.274;2022-10-31T02:09:49;14.30;99.90
70269;DHT22;58514;48.398;-4.274;2022-10-31T02:12:15;14.30;99.90
70269;DHT22;58514;48.398;-4.274;2022-10-31T02:14:41;14.30;99.90
70269;DHT22;58514;48.398;-4.274;2022-10-31T02:17:07;14.30;99.90
70269;DHT22;58514;48.398;-4.274;2022-10-31T02:24:46;14.20;99.90
70269;DHT22;58514;48.398;-4.274;2022-10-31T02:30:06;14.20;99.90
70269;DHT22;58514;48.398;-4.274;2022-10-31T02:35:17;14.20;99.90
70269;DHT22;58514;48.398;-4.274;2022-10-31T02:37:50;14.20;99.90
70269;DHT22;58514;48.398;-4.274;2022-10-31T02:40:21;14.10;99.90
70269;DHT22;58514;48.398;-4.274;2022-10-31T02:45:14;14.10;99.90
70269;DHT22;58514;48.398;-4.274;2022-10-31T02:47:44;14.10;99.90
70269;DHT22;58514;48.398;-4.274;2022-10-31T02:52:36;14.10;99.90
70269;DHT22;58514;48.398;-4.274;2022-10-31T02:57:36;14.10;99.90
70269;DHT22;58514;48.398;-4.274;2022-10-31T03:00:04;14.00;99.90
70269;DHT22;58514;48.398;-4.274;2022-10-31T03:05:23;14.00;99.90
70269;DHT22;58514;48.398;-4.274;2022-10-31T03:10:52;14.00;99.90
70269;DHT22;58514;48.398;-4.274;2022-10-31T03:15:49;14.00;99.90
70269;DHT22;58514;48.398;-4.274;2022-10-31T03:18:17;14.00;99.90
70269;DHT22;58514;48.398;-4.274;2022-10-31T03:20:53;13.90;99.90
70269;DHT22;58514;48.398;-4.274;2022-10-31T03:23:21;13.90;99.90
70269;DHT22;58514;48.398;-4.274;2022-10-31T03:25:48;14.00;99.90
70269;DHT22;58514;48.398;-4.274;2022-10-31T03:28:14;13.90;99.90
70269;DHT22;58514;48.398;-4.274;2022-10-31T03:30:41;14.00;99.90
70269;DHT22;58514;48.398;-4.274;2022-10-31T03:33:09;14.00;99.90
70269;DHT22;58514;48.398;-4.274;2022-10-31T03:35:36;14.00;99.90
70269;DHT22;58514;48.398;-4.274;2022-10-31T03:38:02;14.00;99.90
70269;DHT22;58514;48.398;-4.274;2022-10-31T03:40:28;14.00;99.90
70269;DHT22;58514;48.398;-4.274;2022-10-31T03:42:57;14.00;99.90
70269;DHT22;58514;48.398;-4.274;2022-10-31T03:45:24;13.90;99.90
70269;DHT22;58514;48.398;-4.274;2022-10-31T03:47:52;13.90;99.90
70269;DHT22;58514;48.398;-4.274;2022-10-31T03:50:18;13.90;99.90
70269;DHT22;58514;48.398;-4.274;2022-10-31T04:00:15;13.80;99.90
70269;DHT22;58514;48.398;-4.274;2022-10-31T04:02:42;13.80;99.90
70269;DHT22;58514;48.398;-4.274;2022-10-31T04:05:10;13.80;99.90
70269;DHT22;58514;48.398;-4.274;2022-10-31T04:07:37;13.70;99.90
70269;DHT22;58514;48.398;-4.274;2022-10-31T04:10:05;13.70;99.90
70269;DHT22;58514;48.398;-4.274;2022-10-31T04:12:31;13.70;99.90
70269;DHT22;58514;48.398;-4.274;2022-10-31T04:14:57;13.70;99.90
70269;DHT22;58514;48.398;-4.274;2022-10-31T04:17:24;13.70;99.90
70269;DHT22;58514;48.398;-4.274;2022-10-31T04:19:51;13.70;99.90
70269;DHT22;58514;48.398;-4.274;2022-10-31T04:22:17;13.70;99.90
70269;DHT22;58514;48.398;-4.274;2022-10-31T04:24:42;13.70;99.90
70269;DHT22;58514;48.398;-4.274;2022-10-31T04:27:08;13.70;99.90
70269;DHT22;58514;48.398;-4.274;2022-10-31T04:29:33;13.70;99.90
70269;DHT22;58514;48.398;-4.274;2022-10-31T04:31:59;13.70;99.90
70269;DHT22;58514;48.398;-4.274;2022-10-31T04:34:24;13.70;99.90
70269;DHT22;58514;48.398;-4.274;2022-10-31T04:36:50;13.70;99.90
70269;DHT22;58514;48.398;-4.274;2022-10-31T04:39:15;13.70;99.90
70269;DHT22;58514;48.398;-4.274;2022-10-31T04:41:41;13.70;99.90
70269;DHT22;58514;48.398;-4.274;2022-10-31T04:44:06;13.70;99.90
70269;DHT22;58514;48.398;-4.274;2022-10-31T04:46:32;13.70;99.90
70269;DHT22;58514;48.398;-4.274;2022-10-31T04:48:57;13.70;99.90
70269;DHT22;58514;48.398;-4.274;2022-10-31T04:51:23;13.70;99.90
70269;DHT22;58514;48.398;-4.274;2022-10-31T04:53:49;13.70;99.90
70269;DHT22;58514;48.398;-4.274;2022-10-31T04:56:14;13.60;99.90
70269;DHT22;58514;48.398;-4.274;2022-10-31T04:58:40;13.70;99.90
70269;DHT22;58514;48.398;-4.274;2022-10-31T05:01:05;13.70;99.90
70269;DHT22;58514;48.398;-4.274;2022-10-31T05:03:31;13.70;99.90
70269;DHT22;58514;48.398;-4.274;2022-10-31T05:05:56;13.60;99.90
70269;DHT22;58514;48.398;-4.274;2022-10-31T05:08:22;13.60;99.90
70269;DHT22;58514;48.398;-4.274;2022-10-31T05:10:47;13.60;99.90
70269;DHT22;58514;48.398;-4.274;2022-10-31T05:13:13;13.60;99.90
70269;DHT22;58514;48.398;-4.274;2022-10-31T05:15:39;13.60;99.90
70269;DHT22;58514;48.398;-4.274;2022-10-31T05:18:05;13.60;99.90
70269;DHT22;58514;48.398;-4.274;2022-10-31T05:20:31;13.60;99.90
70269;DHT22;58514;48.398;-4.274;2022-10-31T05:22:57;13.60;99.90
70269;DHT22;58514;48.398;-4.274;2022-10-31T05:25:25;13.50;99.90
70269;DHT22;58514;48.398;-4.274;2022-10-31T05:27:51;13.50;99.90
70269;DHT22;58514;48.398;-4.274;2022-10-31T05:30:18;13.50;99.90
70269;DHT22;58514;48.398;-4.274;2022-10-31T05:32:46;13.50;99.90
70269;DHT22;58514;48.398;-4.274;2022-10-31T05:35:12;13.50;99.90
70269;DHT22;58514;48.398;-4.274;2022-10-31T05:37:38;13.50;99.90
70269;DHT22;58514;48.398;-4.274;2022-10-31T05:40:05;13.50;99.90
70269;DHT22;58514;48.398;-4.274;2022-10-31T05:42:31;13.50;99.90
70269;DHT22;58514;48.398;-4.274;2022-10-31T05:44:56;13.50;99.90
70269;DHT22;58514;48.398;-4.274;2022-10-31T05:47:22;13.50;99.90
70269;DHT22;58514;48.398;-4.274;2022-10-31T05:49:47;13.50;99.90
70269;DHT22;58514;48.398;-4.274;2022-10-31T05:52:13;13.50;99.90
70269;DHT22;58514;48.398;-4.274;2022-10-31T05:54:38;13.50;99.90
70269;DHT22;58514;48.398;-4.274;2022-10-31T05:57:04;13.50;99.90
70269;DHT22;58514;48.398;-4.274;2022-10-31T05:59:30;13.60;99.90
70269;DHT22;58514;48.398;-4.274;2022-10-31T06:01:55;13.50;99.90
70269;DHT22;58514;48.398;-4.274;2022-10-31T06:04:21;13.60;99.90
70269;DHT22;58514;48.398;-4.274;2022-10-31T06:06:46;13.60;99.90
70269;DHT22;58514;48.398;-4.274;2022-10-31T06:09:12;13.60;99.90
70269;DHT22;58514;48.398;-4.274;2022-10-31T06:11:37;13.60;99.90
70269;DHT22;58514;48.398;-4.274;2022-10-31T06:14:03;13.60;99.90
70269;DHT22;58514;48.398;-4.274;2022-10-31T06:16:29;13.70;99.90
70269;DHT22;58514;48.398;-4.274;2022-10-31T06:18:55;13.70;99.90
70269;DHT22;58514;48.398;-4.274;2022-10-31T06:21:20;13.60;99.90
70269;DHT22;58514;48.398;-4.274;2022-10-31T06:23:46;13.60;99.90
70269;DHT22;58514;48.398;-4.274;2022-10-31T06:26:11;13.60;99.90
70269;DHT22;58514;48.398;-4.274;2022-10-31T06:28:37;13.60;99.90
70269;DHT22;58514;48.398;-4.274;2022-10-31T06:31:02;13.60;99.90
70269;DHT22;58514;48.398;-4.274;2022-10-31T06:33:28;13.60;99.90
70269;DHT22;58514;48.398;-4.274;2022-10-31T06:35:53;13.60;99.90
70269;DHT22;58514;48.398;-4.274;2022-10-31T06:38:19;13.60;99.90
70269;DHT22;58514;48.398;-4.274;2022-10-31T06:40:44;13.60;99.90
70269;DHT22;58514;48.398;-4.274;2022-10-31T06:43:10;13.60;99.90
70269;DHT22;58514;48.398;-4.274;2022-10-31T06:45:36;13.50;99.90
70269;DHT22;58514;48.398;-4.274;2022-10-31T06:48:02;13.50;99.90
70269;DHT22;58514;48.398;-4.274;2022-10-31T06:50:28;13.50;99.90
70269;DHT22;58514;48.398;-4.274;2022-10-31T06:52:54;13.50;99.90
70269;DHT22;58514;48.398;-4.274;2022-10-31T06:55:20;13.50;99.90
70269;DHT22;58514;48.398;-4.274;2022-10-31T06:57:58;13.50;99.90
70269;DHT22;58514;48.398;-4.274;2022-10-31T07:00:24;13.50;99.90
70269;DHT22;58514;48.398;-4.274;2022-10-31T07:02:57;13.40;99.90
70269;DHT22;58514;48.398;-4.274;2022-10-31T07:05:23;13.40;99.90
70269;DHT22;58514;48.398;-4.274;2022-10-31T07:07:55;13.40;99.90
70269;DHT22;58514;48.398;-4.274;2022-10-31T07:10:21;13.40;99.90
70269;DHT22;58514;48.398;-4.274;2022-10-31T07:12:46;13.40;99.90
70269;DHT22;58514;48.398;-4.274;2022-10-31T07:15:12;13.40;99.90
70269;DHT22;58514;48.398;-4.274;2022-10-31T07:17:38;13.40;99.90
70269;DHT22;58514;48.398;-4.274;2022-10-31T07:20:03;13.40;99.90
70269;DHT22;58514;48.398;-4.274;2022-10-31T07:22:36;13.40;99.90
70269;DHT22;58514;48.398;-4.274;2022-10-31T07:25:01;13.40;99.90
70269;DHT22;58514;48.398;-4.274;2022-10-31T07:27:27;13.40;99.90
70269;DHT22;58514;48.398;-4.274;2022-10-31T07:29:53;13.40;99.90
70269;DHT22;58514;48.398;-4.274;2022-10-31T07:32:18;13.40;99.90
70269;DHT22;58514;48.398;-4.274;2022-10-31T07:34:44;13.50;99.90
70269;DHT22;58514;48.398;-4.274;2022-10-31T07:37:09;13.50;99.90
70269;DHT22;58514;48.398;-4.274;2022-10-31T07:39:35;13.50;99.90
70269;DHT22;58514;48.398;-4.274;2022-10-31T07:42:00;13.50;99.90
70269;DHT22;58514;48.398;-4.274;2022-10-31T07:44:26;13.60;99.90
70269;DHT22;58514;48.398;-4.274;2022-10-31T07:46:51;13.60;99.90
70269;DHT22;58514;48.398;-4.274;2022-10-31T07:49:17;13.70;99.90
70269;DHT22;58514;48.398;-4.274;2022-10-31T07:51:43;13.70;99.90
70269;DHT22;58514;48.398;-4.274;2022-10-31T07:54:08;13.70;99.90
70269;DHT22;58514;48.398;-4.274;2022-10-31T07:56:34;13.80;99.90
70269;DHT22;58514;48.398;-4.274;2022-10-31T07:58:59;13.80;99.90
70269;DHT22;58514;48.398;-4.274;2022-10-31T08:01:25;13.90;99.90
70269;DHT22;58514;48.398;-4.274;2022-10-31T08:03:50;13.90;99.90
70269;DHT22;58514;48.398;-4.274;2022-10-31T08:06:16;14.00;99.90
70269;DHT22;58514;48.398;-4.274;2022-10-31T08:08:41;14.00;99.90
70269;DHT22;58514;48.398;-4.274;2022-10-31T08:11:07;14.10;99.90
70269;DHT22;58514;48.398;-4.274;2022-10-31T08:13:32;14.20;99.90
70269;DHT22;58514;48.398;-4.274;2022-10-31T08:15:58;14.30;99.90
70269;DHT22;58514;48.398;-4.274;2022-10-31T08:18:28;14.30;99.90
70269;DHT22;58514;48.398;-4.274;2022-10-31T08:20:54;14.30;99.90
70269;DHT22;58514;48.398;-4.274;2022-10-31T08:23:20;14.30;99.90
70269;DHT22;58514;48.398;-4.274;2022-10-31T08:25:45;14.40;99.90
70269;DHT22;58514;48.398;-4.274;2022-10-31T08:28:13;14.50;99.90
70269;DHT22;58514;48.398;-4.274;2022-10-31T08:30:39;14.60;99.90
70269;DHT22;58514;48.398;-4.274;2022-10-31T08:33:12;14.70;99.90
70269;DHT22;58514;48.398;-4.274;2022-10-31T08:35:38;14.90;99.90
70269;DHT22;58514;48.398;-4.274;2022-10-31T08:38:03;14.90;99.90
70269;DHT22;58514;48.398;-4.274;2022-10-31T08:40:30;15.00;99.90
70269;DHT22;58514;48.398;-4.274;2022-10-31T08:42:59;15.00;99.90
70269;DHT22;58514;48.398;-4.274;2022-10-31T08:45:25;15.10;99.90
70269;DHT22;58514;48.398;-4.274;2022-10-31T08:47:51;15.10;99.90
70269;DHT22;58514;48.398;-4.274;2022-10-31T08:50:16;15.20;99.90
70269;DHT22;58514;48.398;-4.274;2022-10-31T08:52:42;15.30;99.90
70269;DHT22;58514;48.398;-4.274;2022-10-31T08:55:07;15.60;99.90
70269;DHT22;58514;48.398;-4.274;2022-10-31T08:57:33;15.70;99.90
70269;DHT22;58514;48.398;-4.274;2022-10-31T08:59:59;15.80;99.90
70269;DHT22;58514;48.398;-4.274;2022-10-31T09:02:24;15.90;99.90
70269;DHT22;58514;48.398;-4.274;2022-10-31T09:04:50;16.00;99.90
70269;DHT22;58514;48.398;-4.274;2022-10-31T09:07:15;16.00;99.90
70269;DHT22;58514;48.398;-4.274;2022-10-31T09:09:41;16.10;99.90
70269;DHT22;58514;48.398;-4.274;2022-10-31T09:12:07;16.20;99.90
70269;DHT22;58514;48.398;-4.274;2022-10-31T09:14:32;16.30;99.90
70269;DHT22;58514;48.398;-4.274;2022-10-31T09:16:58;16.40;99.90
70269;DHT22;58514;48.398;-4.274;2022-10-31T09:19:23;16.50;99.90
70269;DHT22;58514;48.398;-4.274;2022-10-31T09:21:51;16.50;99.90
70269;DHT22;58514;48.398;-4.274;2022-10-31T09:24:17;16.60;99.90
70269;DHT22;58514;48.398;-4.274;2022-10-31T09:26:42;16.70;99.90
70269;DHT22;58514;48.398;-4.274;2022-10-31T09:29:08;16.80;99.90
70269;DHT22;58514;48.398;-4.274;2022-10-31T09:31:35;16.80;99.90
70269;DHT22;58514;48.398;-4.274;2022-10-31T09:34:00;16.90;99.90
70269;DHT22;58514;48.398;-4.274;2022-10-31T09:36:26;17.00;99.90
70269;DHT22;58514;48.398;-4.274;2022-10-31T09:38:51;17.10;99.90
70269;DHT22;58514;48.398;-4.274;2022-10-31T09:41:51;17.30;99.90
70269;DHT22;58514;48.398;-4.274;2022-10-31T09:44:18;17.50;99.90
70269;DHT22;58514;48.398;-4.274;2022-10-31T09:52:03;17.90;99.90
70269;DHT22;58514;48.398;-4.274;2022-10-31T09:54:38;17.80;99.90
70269;DHT22;58514;48.398;-4.274;2022-10-31T09:57:05;17.70;99.90
70269;DHT22;58514;48.398;-4.274;2022-10-31T09:59:37;17.50;99.90
70269;DHT22;58514;48.398;-4.274;2022-10-31T10:02:04;17.30;99.90
70269;DHT22;58514;48.398;-4.274;2022-10-31T10:07:02;17.00;99.90
70269;DHT22;58514;48.398;-4.274;2022-10-31T10:09:30;16.80;99.90
70269;DHT22;58514;48.398;-4.274;2022-10-31T10:14:47;16.60;99.90
70269;DHT22;58514;48.398;-4.274;2022-10-31T10:27:54;16.40;99.90
70269;DHT22;58514;48.398;-4.274;2022-10-31T10:30:28;16.30;99.90
70269;DHT22;58514;48.398;-4.274;2022-10-31T10:33:39;16.30;99.90
70269;DHT22;58514;48.398;-4.274;2022-10-31T10:35:52;16.40;99.90
70269;DHT22;58514;48.398;-4.274;2022-10-31T10:38:36;16.60;99.90
70269;DHT22;58514;48.398;-4.274;2022-10-31T10:41:05;16.70;99.90
70269;DHT22;58514;48.398;-4.274;2022-10-31T10:43:38;16.70;99.90
70269;DHT22;58514;48.398;-4.274;2022-10-31T10:48:51;16.60;99.90
70269;DHT22;58514;48.398;-4.274;2022-10-31T10:51:23;16.70;99.90
70269;DHT22;58514;48.398;-4.274;2022-10-31T10:53:55;16.80;99.90
70269;DHT22;58514;48.398;-4.274;2022-10-31T10:59:13;16.90;99.90
70269;DHT22;58514;48.398;-4.274;2022-10-31T11:01:40;16.90;99.90
70269;DHT22;58514;48.398;-4.274;2022-10-31T11:04:27;16.90;99.90
70269;DHT22;58514;48.398;-4.274;2022-10-31T11:07:06;16.80;99.90
70269;DHT22;58514;48.398;-4.274;2022-10-31T11:09:33;16.80;99.90
70269;DHT22;58514;48.398;-4.274;2022-10-31T11:11:58;16.70;99.90
70269;DHT22;58514;48.398;-4.274;2022-10-31T11:14:25;16.70;99.90
70269;DHT22;58514;48.398;-4.274;2022-10-31T11:17:06;16.60;99.90
70269;DHT22;58514;48.398;-4.274;2022-10-31T11:19:33;16.70;99.90
70269;DHT22;58514;48.398;-4.274;2022-10-31T11:22:08;16.80;99.90
70269;DHT22;58514;48.398;-4.274;2022-10-31T11:24:38;16.90;99.90
70269;DHT22;58514;48.398;-4.274;2022-10-31T11:27:16;17.00;99.90
70269;DHT22;58514;48.398;-4.274;2022-10-31T11:29:45;17.10;99.90
70269;DHT22;58514;48.398;-4.274;2022-10-31T11:34:45;17.20;99.90
70269;DHT22;58514;48.398;-4.274;2022-10-31T11:37:13;17.20;99.90
70269;DHT22;58514;48.398;-4.274;2022-10-31T11:39:40;17.10;99.90
70269;DHT22;58514;48.398;-4.274;2022-10-31T11:42:06;17.10;99.90
70269;DHT22;58514;48.398;-4.274;2022-10-31T11:44:32;17.00;99.90
70269;DHT22;58514;48.398;-4.274;2022-10-31T11:47:02;17.00;99.90
70269;DHT22;58514;48.398;-4.274;2022-10-31T11:49:34;16.90;99.90
70269;DHT22;58514;48.398;-4.274;2022-10-31T11:52:05;16.90;99.90
70269;DHT22;58514;48.398;-4.274;2022-10-31T11:54:48;16.90;99.90
70269;DHT22;58514;48.398;-4.274;2022-10-31T11:57:49;16.80;99.90
70269;DHT22;58514;48.398;-4.274;2022-10-31T12:00:19;16.80;99.90
70269;DHT22;58514;48.398;-4.274;2022-10-31T12:02:45;16.80;99.90
70269;DHT22;58514;48.398;-4.274;2022-10-31T12:05:18;16.90;99.90
70269;DHT22;58514;48.398;-4.274;2022-10-31T12:07:45;16.90;99.90
70269;DHT22;58514;48.398;-4.274;2022-10-31T12:10:11;17.00;99.90
70269;DHT22;58514;48.398;-4.274;2022-10-31T12:12:56;17.00;99.90
70269;DHT22;58514;48.398;-4.274;2022-10-31T12:15:29;17.00;99.90
70269;DHT22;58514;48.398;-4.274;2022-10-31T12:20:54;17.00;99.90
70269;DHT22;58514;48.398;-4.274;2022-10-31T12:33:54;16.80;99.90
70269;DHT22;58514;48.398;-4.274;2022-10-31T12:46:09;16.80;99.90
70269;DHT22;58514;48.398;-4.274;2022-10-31T12:58:43;16.80;99.90
70269;DHT22;58514;48.398;-4.274;2022-10-31T13:01:14;16.80;99.90
70269;DHT22;58514;48.398;-4.274;2022-10-31T13:03:52;16.80;99.90
70269;DHT22;58514;48.398;-4.274;2022-10-31T13:06:20;16.80;99.90
70269;DHT22;58514;48.398;-4.274;2022-10-31T13:08:51;16.80;99.90
70269;DHT22;58514;48.398;-4.274;2022-10-31T13:11:23;16.70;99.90
70269;DHT22;58514;48.398;-4.274;2022-10-31T13:13:53;16.70;99.90
70269;DHT22;58514;48.398;-4.274;2022-10-31T13:16:22;16.70;99.90
70269;DHT22;58514;48.398;-4.274;2022-10-31T13:18:52;16.70;99.90
70269;DHT22;58514;48.398;-4.274;2022-10-31T13:21:22;16.70;99.90
70269;DHT22;58514;48.398;-4.274;2022-10-31T13:23:49;16.70;99.90
70269;DHT22;58514;48.398;-4.274;2022-10-31T13:26:20;16.70;99.90
70269;DHT22;58514;48.398;-4.274;2022-10-31T13:28:56;16.70;99.90
70269;DHT22;58514;48.398;-4.274;2022-10-31T13:31:22;16.70;99.90
70269;DHT22;58514;48.398;-4.274;2022-10-31T13:33:50;16.70;99.90
70269;DHT22;58514;48.398;-4.274;2022-10-31T13:36:29;16.70;99.90
70269;DHT22;58514;48.398;-4.274;2022-10-31T13:41:47;16.70;99.90
70269;DHT22;58514;48.398;-4.274;2022-10-31T13:44:23;16.60;99.90
70269;DHT22;58514;48.398;-4.274;2022-10-31T13:46:49;16.60;99.90
70269;DHT22;58514;48.398;-4.274;2022-10-31T13:50:02;16.60;99.90
70269;DHT22;58514;48.398;-4.274;2022-10-31T13:57:02;16.50;99.90
70269;DHT22;58514;48.398;-4.274;2022-10-31T13:59:28;16.60;99.90
70269;DHT22;58514;48.398;-4.274;2022-10-31T14:01:55;16.50;99.90
70269;DHT22;58514;48.398;-4.274;2022-10-31T14:04:25;16.50;99.90
70269;DHT22;58514;48.398;-4.274;2022-10-31T14:09:21;16.40;99.90
70269;DHT22;58514;48.398;-4.274;2022-10-31T14:11:47;16.30;99.90
70269;DHT22;58514;48.398;-4.274;2022-10-31T14:14:13;16.20;99.90
70269;DHT22;58514;48.398;-4.274;2022-10-31T14:16:39;16.10;99.90
70269;DHT22;58514;48.398;-4.274;2022-10-31T14:19:08;16.10;99.90
70269;DHT22;58514;48.398;-4.274;2022-10-31T14:21:39;16.10;99.90
70269;DHT22;58514;48.398;-4.274;2022-10-31T14:24:29;16.10;99.90
70269;DHT22;58514;48.398;-4.274;2022-10-31T14:29:46;16.00;99.90
70269;DHT22;58514;48.398;-4.274;2022-10-31T14:48:07;15.80;99.90
70269;DHT22;58514;48.398;-4.274;2022-10-31T14:50:51;15.80;99.90
70269;DHT22;58514;48.398;-4.274;2022-10-31T14:53:22;15.80;99.90
70269;DHT22;58514;48.398;-4.274;2022-10-31T14:55:49;15.80;99.90
70269;DHT22;58514;48.398;-4.274;2022-10-31T14:58:20;15.70;99.90
70269;DHT22;58514;48.398;-4.274;2022-10-31T15:00:46;15.70;99.90
70269;DHT22;58514;48.398;-4.274;2022-10-31T15:03:14;15.70;99.90
70269;DHT22;58514;48.398;-4.274;2022-10-31T15:05:42;15.70;99.90
70269;DHT22;58514;48.398;-4.274;2022-10-31T15:08:14;15.70;99.90
70269;DHT22;58514;48.398;-4.274;2022-10-31T15:10:39;15.70;99.90
70269;DHT22;58514;48.398;-4.274;2022-10-31T15:13:10;15.70;99.90
70269;DHT22;58514;48.398;-4.274;2022-10-31T15:15:36;15.70;99.90
70269;DHT22;58514;48.398;-4.274;2022-10-31T15:18:03;15.60;99.90
70269;DHT22;58514;48.398;-4.274;2022-10-31T15:20:30;15.60;99.90
70269;DHT22;58514;48.398;-4.274;2022-10-31T15:22:58;15.60;99.90
70269;DHT22;58514;48.398;-4.274;2022-10-31T15:25:25;15.50;99.90
70269;DHT22;58514;48.398;-4.274;2022-10-31T15:27:52;15.40;99.90
70269;DHT22;58514;48.398;-4.274;2022-10-31T15:30:22;15.20;99.90
70269;DHT22;58514;48.398;-4.274;2022-10-31T15:32:48;15.20;99.90
70269;DHT22;58514;48.398;-4.274;2022-10-31T15:35:27;15.10;99.90
70269;DHT22;58514;48.398;-4.274;2022-10-31T15:37:53;15.00;99.90
70269;DHT22;58514;48.398;-4.274;2022-10-31T15:40:20;15.00;99.90
70269;DHT22;58514;48.398;-4.274;2022-10-31T15:42:56;14.90;99.90
70269;DHT22;58514;48.398;-4.274;2022-10-31T15:45:23;14.90;99.90
70269;DHT22;58514;48.398;-4.274;2022-10-31T15:50:19;14.80;99.90
70269;DHT22;58514;48.398;-4.274;2022-10-31T15:52:46;14.80;99.90
70269;DHT22;58514;48.398;-4.274;2022-10-31T15:55:19;14.70;99.90
70269;DHT22;58514;48.398;-4.274;2022-10-31T15:57:47;14.70;99.90
70269;DHT22;58514;48.398;-4.274;2022-10-31T16:02:48;14.70;99.90
70269;DHT22;58514;48.398;-4.274;2022-10-31T16:05:18;14.70;99.90
70269;DHT22;58514;48.398;-4.274;2022-10-31T16:07:49;14.70;99.90
70269;DHT22;58514;48.398;-4.274;2022-10-31T16:10:25;14.70;99.90
70269;DHT22;58514;48.398;-4.274;2022-10-31T16:12:51;14.70;99.90
70269;DHT22;58514;48.398;-4.274;2022-10-31T16:15:17;14.70;99.90
70269;DHT22;58514;48.398;-4.274;2022-10-31T16:17:45;14.60;99.90
70269;DHT22;58514;48.398;-4.274;2022-10-31T16:20:29;14.60;99.90
70269;DHT22;58514;48.398;-4.274;2022-10-31T16:22:57;14.60;99.90
70269;DHT22;58514;48.398;-4.274;2022-10-31T16:25:32;14.60;99.90
70269;DHT22;58514;48.398;-4.274;2022-10-31T16:28:02;14.60;99.90
70269;DHT22;58514;48.398;-4.274;2022-10-31T16:30:35;14.60;99.90
70269;DHT22;58514;48.398;-4.274;2022-10-31T16:33:04;14.50;99.90
70269;DHT22;58514;48.398;-4.274;2022-10-31T16:37:59;14.50;99.90
70269;DHT22;58514;48.398;-4.274;2022-10-31T16:40:25;14.50;99.90
70269;DHT22;58514;48.398;-4.274;2022-10-31T16:42:50;14.50;99.90
70269;DHT22;58514;48.398;-4.274;2022-10-31T16:45:23;14.50;99.90
70269;DHT22;58514;48.398;-4.274;2022-10-31T16:47:48;14.50;99.90
70269;DHT22;58514;48.398;-4.274;2022-10-31T16:50:15;14.50;99.90
70269;DHT22;58514;48.398;-4.274;2022-10-31T16:52:41;14.50;99.90
70269;DHT22;58514;48.398;-4.274;2022-10-31T16:55:10;14.50;99.90
70269;DHT22;58514;48.398;-4.274;2022-10-31T16:57:36;14.60;99.90
70269;DHT22;58514;48.398;-4.274;2022-10-31T17:00:02;14.60;99.90
70269;DHT22;58514;48.398;-4.274;2022-10-31T17:02:28;14.60;99.90
70269;DHT22;58514;48.398;-4.274;2022-10-31T17:04:54;14.60;99.90
70269;DHT22;58514;48.398;-4.274;2022-10-31T17:07:19;14.50;99.90
70269;DHT22;58514;48.398;-4.274;2022-10-31T17:09:45;14.50;99.90
70269;DHT22;58514;48.398;-4.274;2022-10-31T17:12:15;14.40;99.90
70269;DHT22;58514;48.398;-4.274;2022-10-31T17:14:42;14.30;99.90
70269;DHT22;58514;48.398;-4.274;2022-10-31T17:17:09;14.30;99.90
70269;DHT22;58514;48.398;-4.274;2022-10-31T17:19:34;14.30;99.90
70269;DHT22;58514;48.398;-4.274;2022-10-31T17:22:00;14.20;99.90
70269;DHT22;58514;48.398;-4.274;2022-10-31T17:24:26;14.20;99.90
70269;DHT22;58514;48.398;-4.274;2022-10-31T17:26:52;14.20;99.90
70269;DHT22;58514;48.398;-4.274;2022-10-31T17:29:17;14.10;99.90
70269;DHT22;58514;48.398;-4.274;2022-10-31T17:31:43;14.10;99.90
70269;DHT22;58514;48.398;-4.274;2022-10-31T17:34:09;14.00;99.90